sensor_id;sensor_type;location;lat;lon;timestamp;P1;durP1;ratioP1;P2;durP2;ratioP2
37365;SDS011;23239;51.504;7.456;2024-01-15T00:00:00;37.4;;;26.6;;
37365;SDS011;23239;51.504;7.456;2024-01-15T00:01:00;37.4;;;26.6;;
37365;SDS011;23239;51.504;7.456;2024-01-15T00:02:00;37.4;;;26.6;;
37365;SDS011;23239;51.504;7.456;2024-01-15T00:03:00;37.4;;;26.6;;
37365;SDS011;23239;51.504;7.456;2024-01-15T00:04:00;37.4;;;26.6;;
37365;SDS011;23239;51.504;7.456;2024-01-15T00:05:00;40.9;;;29.2;;
37365;SDS011;23239;51.504;7.456;2024-01-15T00:06:00;40.9;;;29.2;;
37365;SDS011;23239;51.504;7.456;2024-01-15T00:07:00;40.9;;;29.2;;
37365;SDS011;23239;51.504;7.456;2024-01-15T00:08:00;40.9;;;29.2;;
37365;SDS011;23239;51.504;7.456;2024-01-15T00:09:00;40.9;;;29.2;;
37365;SDS011;23239;51.504;7.456;2024-01-15T00:10:00;38.4;;;27.9;;
37365;SDS011;23239;51.504;7.456;2024-01-15T00:11:00;38.4;;;27.9;;
37365;SDS011;23239;51.504;7.456;2024-01-15T00:12:00;38.4;;;27.9;;
37365;SDS011;23239;51.504;7.456;2024-01-15T00:13:00;38.4;;;27.9;;
37365;SDS011;23239;51.504;7.456;2024-01-15T00:14:00;38.4;;;27.9;;
37365;SDS011;23239;51.504;7.456;2024-01-15T00:15:00;38.5;;;28.1;;
37365;SDS011;23239;51.504;7.456;2024-01-15T00:16:00;38.5;;;28.1;;
37365;SDS011;23239;51.504;7.456;2024-01-15T00:17:00;38.5;;;28.1;;
37365;SDS011;23239;51.504;7.456;2024-01-15T00:18:00;38.5;;;28.1;;
37365;SDS011;23239;51.504;7.456;2024-01-15T00:19:00;38.5;;;28.1;;
37365;SDS011;23239;51.504;7.456;2024-01-15T00:20:00;40.3;;;28.6;;
37365;SDS011;23239;51.504;7.456;2024-01-15T00:21:00;40.3;;;28.6;;
37365;SDS011;23239;51.504;7.456;2024-01-15T00:22:00;40.3;;;28.6;;
37365;SDS011;23239;51.504;7.456;2024-01-15T00:23:00;40.3;;;28.6;;
37365;SDS011;23239;51.504;7.456;2024-01-15T00:24:00;40.3;;;28.6;;
37365;SDS011;23239;51.504;7.456;2024-01-15T00:25:00;44.8;;;29.6;;
37365;SDS011;23239;51.504;7.456;2024-01-15T00:26:00;44.8;;;29.6;;
37365;SDS011;23239;51.504;7.456;2024-01-15T00:27:00;44.8;;;29.6;;
37365;SDS011;23239;51.504;7.456;2024-01-15T00:28:00;44.8;;;29.6;;
37365;SDS011;23239;51.504;7.456;2024-01-15T00:29:00;44.8;;;29.6;;
37365;SDS011;23239;51.504;7.456;2024-01-15T00:30:00;41.5;;;29.9;;
37365;SDS011;23239;51.504;7.456;2024-01-15T00:31:00;41.5;;;29.9;;
37365;SDS011;23239;51.504;7.456;2024-01-15T00:32:00;41.5;;;29.9;;
37365;SDS011;23239;51.504;7.456;2024-01-15T00:33:00;41.5;;;29.9;;
37365;SDS011;23239;51.504;7.456;2024-01-15T00:34:00;41.5;;;29.9;;
37365;SDS011;23239;51.504;7.456;2024-01-15T00:35:00;44.4;;;30.7;;
37365;SDS011;23239;51.504;7.456;2024-01-15T00:36:00;44.4;;;30.7;;
37365;SDS011;23239;51.504;7.456;2024-01-15T00:37:00;44.4;;;30.7;;
37365;SDS011;23239;51.504;7.456;2024-01-15T00:38:00;44.4;;;30.7;;
37365;SDS011;23239;51.504;7.456;2024-01-15T00:39:00;44.4;;;30.7;;
37365;SDS011;23239;51.504;7.456;2024-01-15T00:40:00;44.6;;;30.5;;
37365;SDS011;23239;51.504;7.456;2024-01-15T00:41:00;44.6;;;30.5;;
37365;SDS011;23239;51.504;7.456;2024-01-15T00:42:00;44.6;;;30.5;;
37365;SDS011;23239;51.504;7.456;2024-01-15T00:43:00;44.6;;;30.5;;
37365;SDS011;23239;51.504;7.456;2024-01-15T00:44:00;44.6;;;30.5;;
37365;SDS011;23239;51.504;7.456;2024-01-15T00:45:00;39.9;;;26.3;;
37365;SDS011;23239;51.504;7.456;2024-01-15T00:46:01;39.9;;;26.3;;
37365;SDS011;23239;51.504;7.456;2024-01-15T00:47:00;39.9;;;26.3;;
37365;SDS011;23239;51.504;7.456;2024-01-15T00:48:00;39.9;;;26.3;;
37365;SDS011;23239;51.504;7.456;2024-01-15T00:49:00;39.9;;;26.3;;
37365;SDS011;23239;51.504;7.456;2024-01-15T00:50:00;39.6;;;26.3;;
37365;SDS011;23239;51.504;7.456;2024-01-15T00:51:00;39.6;;;26.3;;
37365;SDS011;23239;51.504;7.456;2024-01-15T00:52:00;39.6;;;26.3;;
37365;SDS011;23239;51.504;7.456;2024-01-15T00:53:00;39.6;;;26.3;;
37365;SDS011;23239;51.504;7.456;2024-01-15T00:54:00;39.6;;;26.3;;
37365;SDS011;23239;51.504;7.456;2024-01-15T00:55:00;39.3;;;27.7;;
37365;SDS011;23239;51.504;7.456;2024-01-15T00:56:00;39.3;;;27.7;;
37365;SDS011;23239;51.504;7.456;2024-01-15T00:57:00;39.3;;;27.7;;
37365;SDS011;23239;51.504;7.456;2024-01-15T00:58:00;39.3;;;27.7;;
37365;SDS011;23239;51.504;7.456;2024-01-15T00:59:00;39.3;;;27.7;;
37365;SDS011;23239;51.504;7.456;2024-01-15T01:00:00;39.5;;;24.5;;
37365;SDS011;23239;51.504;7.456;2024-01-15T01:01:00;39.5;;;24.5;;
37365;SDS011;23239;51.504;7.456;2024-01-15T01:02:00;39.5;;;24.5;;
37365;SDS011;23239;51.504;7.456;2024-01-15T01:03:00;39.5;;;24.5;;
37365;SDS011;23239;51.504;7.456;2024-01-15T01:04:00;39.5;;;24.5;;
37365;SDS011;23239;51.504;7.456;2024-01-15T01:05:00;37.9;;;24.0;;
37365;SDS011;23239;51.504;7.456;2024-01-15T01:06:00;37.9;;;24.0;;
37365;SDS011;23239;51.504;7.456;2024-01-15T01:07:00;37.9;;;24.0;;
37365;SDS011;23239;51.504;7.456;2024-01-15T01:08:00;37.9;;;24.0;;
37365;SDS011;23239;51.504;7.456;2024-01-15T01:09:00;37.9;;;24.0;;
37365;SDS011;23239;51.504;7.456;2024-01-15T01:10:00;37.1;;;23.1;;
37365;SDS011;23239;51.504;7.456;2024-01-15T01:11:00;37.1;;;23.1;;
37365;SDS011;23239;51.504;7.456;2024-01-15T01:12:00;37.1;;;23.1;;
37365;SDS011;23239;51.504;7.456;2024-01-15T01:13:00;37.1;;;23.1;;
37365;SDS011;23239;51.504;7.456;2024-01-15T01:14:00;37.1;;;23.1;;
37365;SDS011;23239;51.504;7.456;2024-01-15T01:15:01;34.2;;;22.8;;
37365;SDS011;23239;51.504;7.456;2024-01-15T01:16:00;34.2;;;22.8;;
37365;SDS011;23239;51.504;7.456;2024-01-15T01:17:00;34.2;;;22.8;;
37365;SDS011;23239;51.504;7.456;2024-01-15T01:18:00;34.2;;;22.8;;
37365;SDS011;23239;51.504;7.456;2024-01-15T01:19:00;34.2;;;22.8;;
37365;SDS011;23239;51.504;7.456;2024-01-15T01:20:00;36.0;;;22.9;;
37365;SDS011;23239;51.504;7.456;2024-01-15T01:21:00;36.0;;;22.9;;
37365;SDS011;23239;51.504;7.456;2024-01-15T01:22:00;36.0;;;22.9;;
37365;SDS011;23239;51.504;7.456;2024-01-15T01:23:00;36.0;;;22.9;;
37365;SDS011;23239;51.504;7.456;2024-01-15T01:24:00;36.0;;;22.9;;
37365;SDS011;23239;51.504;7.456;2024-01-15T01:25:00;32.0;;;21.4;;
37365;SDS011;23239;51.504;7.456;2024-01-15T01:26:00;32.0;;;21.4;;
37365;SDS011;23239;51.504;7.456;2024-01-15T01:27:00;32.0;;;21.4;;
37365;SDS011;23239;51.504;7.456;2024-01-15T01:28:00;32.0;;;21.4;;
37365;SDS011;23239;51.504;7.456;2024-01-15T01:29:00;32.0;;;21.4;;
37365;SDS011;23239;51.504;7.456;2024-01-15T01:30:00;35.1;;;22.6;;
37365;SDS011;23239;51.504;7.456;2024-01-15T01:31:00;35.1;;;22.6;;
37365;SDS011;23239;51.504;7.456;2024-01-15T01:32:00;35.1;;;22.6;;
37365;SDS011;23239;51.504;7.456;2024-01-15T01:33:00;35.1;;;22.6;;
37365;SDS011;23239;51.504;7.456;2024-01-15T01:34:00;35.1;;;22.6;;
37365;SDS011;23239;51.504;7.456;2024-01-15T01:35:00;36.6;;;22.9;;
37365;SDS011;23239;51.504;7.456;2024-01-15T01:36:00;36.6;;;22.9;;
37365;SDS011;23239;51.504;7.456;2024-01-15T01:37:00;36.6;;;22.9;;
37365;SDS011;23239;51.504;7.456;2024-01-15T01:38:00;36.6;;;22.9;;
37365;SDS011;23239;51.504;7.456;2024-01-15T01:39:00;36.6;;;22.9;;
37365;SDS011;23239;51.504;7.456;2024-01-15T01:40:00;38.1;;;24.0;;
37365;SDS011;23239;51.504;7.456;2024-01-15T01:41:00;38.1;;;24.0;;
37365;SDS011;23239;51.504;7.456;2024-01-15T01:42:00;38.1;;;24.0;;
37365;SDS011;23239;51.504;7.456;2024-01-15T01:43:00;38.1;;;24.0;;
37365;SDS011;23239;51.504;7.456;2024-01-15T01:44:00;38.1;;;24.0;;
37365;SDS011;23239;51.504;7.456;2024-01-15T01:45:00;37.2;;;21.7;;
37365;SDS011;23239;51.504;7.456;2024-01-15T01:46:00;37.2;;;21.7;;
37365;SDS011;23239;51.504;7.456;2024-01-15T01:47:00;37.2;;;21.7;;
37365;SDS011;23239;51.504;7.456;2024-01-15T01:48:00;37.2;;;21.7;;
37365;SDS011;23239;51.504;7.456;2024-01-15T01:49:00;37.2;;;21.7;;
37365;SDS011;23239;51.504;7.456;2024-01-15T01:50:01;34.7;;;21.7;;
37365;SDS011;23239;51.504;7.456;2024-01-15T01:51:01;34.7;;;21.7;;
37365;SDS011;23239;51.504;7.456;2024-01-15T01:52:00;34.7;;;21.7;;
37365;SDS011;23239;51.504;7.456;2024-01-15T01:53:00;34.7;;;21.7;;
37365;SDS011;23239;51.504;7.456;2024-01-15T01:54:00;34.7;;;21.7;;
37365;SDS011;23239;51.504;7.456;2024-01-15T01:55:00;32.2;;;20.7;;
37365;SDS011;23239;51.504;7.456;2024-01-15T01:56:00;32.2;;;20.7;;
37365;SDS011;23239;51.504;7.456;2024-01-15T01:57:00;32.2;;;20.7;;
37365;SDS011;23239;51.504;7.456;2024-01-15T01:58:00;32.2;;;20.7;;
37365;SDS011;23239;51.504;7.456;2024-01-15T01:59:00;32.2;;;20.7;;
37365;SDS011;23239;51.504;7.456;2024-01-15T02:00:00;34.0;;;21.9;;
37365;SDS011;23239;51.504;7.456;2024-01-15T02:01:00;34.0;;;21.9;;
37365;SDS011;23239;51.504;7.456;2024-01-15T02:02:00;34.0;;;21.9;;
37365;SDS011;23239;51.504;7.456;2024-01-15T02:03:00;34.0;;;21.9;;
37365;SDS011;23239;51.504;7.456;2024-01-15T02:04:00;34.0;;;21.9;;
37365;SDS011;23239;51.504;7.456;2024-01-15T02:05:00;37.1;;;21.8;;
37365;SDS011;23239;51.504;7.456;2024-01-15T02:06:00;37.1;;;21.8;;
37365;SDS011;23239;51.504;7.456;2024-01-15T02:07:00;37.1;;;21.8;;
37365;SDS011;23239;51.504;7.456;2024-01-15T02:08:00;37.1;;;21.8;;
37365;SDS011;23239;51.504;7.456;2024-01-15T02:09:00;37.1;;;21.8;;
37365;SDS011;23239;51.504;7.456;2024-01-15T02:10:00;36.6;;;22.0;;
37365;SDS011;23239;51.504;7.456;2024-01-15T02:11:00;36.6;;;22.0;;
37365;SDS011;23239;51.504;7.456;2024-01-15T02:12:00;36.6;;;22.0;;
37365;SDS011;23239;51.504;7.456;2024-01-15T02:13:00;36.6;;;22.0;;
37365;SDS011;23239;51.504;7.456;2024-01-15T02:14:00;36.6;;;22.0;;
37365;SDS011;23239;51.504;7.456;2024-01-15T02:15:00;34.1;;;21.7;;
37365;SDS011;23239;51.504;7.456;2024-01-15T02:16:00;34.1;;;21.7;;
37365;SDS011;23239;51.504;7.456;2024-01-15T02:17:00;34.1;;;21.7;;
37365;SDS011;23239;51.504;7.456;2024-01-15T02:18:01;34.1;;;21.7;;
37365;SDS011;23239;51.504;7.456;2024-01-15T02:19:00;34.1;;;21.7;;
37365;SDS011;23239;51.504;7.456;2024-01-15T02:20:00;34.7;;;20.8;;
37365;SDS011;23239;51.504;7.456;2024-01-15T02:21:00;34.7;;;20.8;;
37365;SDS011;23239;51.504;7.456;2024-01-15T02:22:00;34.7;;;20.8;;
37365;SDS011;23239;51.504;7.456;2024-01-15T02:23:02;34.7;;;20.8;;
37365;SDS011;23239;51.504;7.456;2024-01-15T02:24:00;34.7;;;20.8;;
37365;SDS011;23239;51.504;7.456;2024-01-15T02:25:00;38.1;;;22.4;;
37365;SDS011;23239;51.504;7.456;2024-01-15T02:26:00;38.1;;;22.4;;
37365;SDS011;23239;51.504;7.456;2024-01-15T02:27:00;38.1;;;22.4;;
37365;SDS011;23239;51.504;7.456;2024-01-15T02:28:00;38.1;;;22.4;;
37365;SDS011;23239;51.504;7.456;2024-01-15T02:29:00;38.1;;;22.4;;
37365;SDS011;23239;51.504;7.456;2024-01-15T02:30:00;34.0;;;21.2;;
37365;SDS011;23239;51.504;7.456;2024-01-15T02:31:00;34.0;;;21.2;;
37365;SDS011;23239;51.504;7.456;2024-01-15T02:32:03;34.0;;;21.2;;
37365;SDS011;23239;51.504;7.456;2024-01-15T02:33:00;34.0;;;21.2;;
37365;SDS011;23239;51.504;7.456;2024-01-15T02:34:00;34.0;;;21.2;;
37365;SDS011;23239;51.504;7.456;2024-01-15T02:35:00;31.4;;;20.0;;
37365;SDS011;23239;51.504;7.456;2024-01-15T02:36:00;31.4;;;20.0;;
37365;SDS011;23239;51.504;7.456;2024-01-15T02:37:00;31.4;;;20.0;;
37365;SDS011;23239;51.504;7.456;2024-01-15T02:38:00;31.4;;;20.0;;
37365;SDS011;23239;51.504;7.456;2024-01-15T02:39:00;31.4;;;20.0;;
37365;SDS011;23239;51.504;7.456;2024-01-15T02:40:00;33.0;;;20.5;;
37365;SDS011;23239;51.504;7.456;2024-01-15T02:41:00;33.0;;;20.5;;
37365;SDS011;23239;51.504;7.456;2024-01-15T02:42:00;33.0;;;20.5;;
37365;SDS011;23239;51.504;7.456;2024-01-15T02:43:00;33.0;;;20.5;;
37365;SDS011;23239;51.504;7.456;2024-01-15T02:44:00;33.0;;;20.5;;
37365;SDS011;23239;51.504;7.456;2024-01-15T02:45:00;30.8;;;19.0;;
37365;SDS011;23239;51.504;7.456;2024-01-15T02:46:00;30.8;;;19.0;;
37365;SDS011;23239;51.504;7.456;2024-01-15T02:47:00;30.8;;;19.0;;
37365;SDS011;23239;51.504;7.456;2024-01-15T02:48:00;30.8;;;19.0;;
37365;SDS011;23239;51.504;7.456;2024-01-15T02:49:00;30.8;;;19.0;;
37365;SDS011;23239;51.504;7.456;2024-01-15T02:50:00;29.2;;;18.4;;
37365;SDS011;23239;51.504;7.456;2024-01-15T02:51:00;29.2;;;18.4;;
37365;SDS011;23239;51.504;7.456;2024-01-15T02:52:00;29.2;;;18.4;;
37365;SDS011;23239;51.504;7.456;2024-01-15T02:53:00;29.2;;;18.4;;
37365;SDS011;23239;51.504;7.456;2024-01-15T02:54:00;29.2;;;18.4;;
37365;SDS011;23239;51.504;7.456;2024-01-15T02:55:00;28.6;;;18.5;;
37365;SDS011;23239;51.504;7.456;2024-01-15T02:56:00;28.6;;;18.5;;
37365;SDS011;23239;51.504;7.456;2024-01-15T02:57:00;28.6;;;18.5;;
37365;SDS011;23239;51.504;7.456;2024-01-15T02:58:00;28.6;;;18.5;;
37365;SDS011;23239;51.504;7.456;2024-01-15T02:59:00;28.6;;;18.5;;
37365;SDS011;23239;51.504;7.456;2024-01-15T03:00:00;28.0;;;17.6;;
37365;SDS011;23239;51.504;7.456;2024-01-15T03:01:00;28.0;;;17.6;;
37365;SDS011;23239;51.504;7.456;2024-01-15T03:02:00;28.0;;;17.6;;
37365;SDS011;23239;51.504;7.456;2024-01-15T03:03:00;28.0;;;17.6;;
37365;SDS011;23239;51.504;7.456;2024-01-15T03:04:00;28.0;;;17.6;;
37365;SDS011;23239;51.504;7.456;2024-01-15T03:05:00;29.4;;;17.9;;
37365;SDS011;23239;51.504;7.456;2024-01-15T03:06:01;29.4;;;17.9;;
37365;SDS011;23239;51.504;7.456;2024-01-15T03:07:00;29.4;;;17.9;;
37365;SDS011;23239;51.504;7.456;2024-01-15T03:08:00;29.4;;;17.9;;
37365;SDS011;23239;51.504;7.456;2024-01-15T03:09:00;29.4;;;17.9;;
37365;SDS011;23239;51.504;7.456;2024-01-15T03:10:00;30.0;;;19.4;;
37365;SDS011;23239;51.504;7.456;2024-01-15T03:11:00;30.0;;;19.4;;
37365;SDS011;23239;51.504;7.456;2024-01-15T03:12:00;30.0;;;19.4;;
37365;SDS011;23239;51.504;7.456;2024-01-15T03:13:00;30.0;;;19.4;;
37365;SDS011;23239;51.504;7.456;2024-01-15T03:14:00;30.0;;;19.4;;
37365;SDS011;23239;51.504;7.456;2024-01-15T03:15:00;30.4;;;18.1;;
37365;SDS011;23239;51.504;7.456;2024-01-15T03:16:00;30.4;;;18.1;;
37365;SDS011;23239;51.504;7.456;2024-01-15T03:17:00;30.4;;;18.1;;
37365;SDS011;23239;51.504;7.456;2024-01-15T03:18:00;30.4;;;18.1;;
37365;SDS011;23239;51.504;7.456;2024-01-15T03:19:00;30.4;;;18.1;;
37365;SDS011;23239;51.504;7.456;2024-01-15T03:20:01;28.6;;;18.2;;
37365;SDS011;23239;51.504;7.456;2024-01-15T03:21:00;28.6;;;18.2;;
37365;SDS011;23239;51.504;7.456;2024-01-15T03:22:00;28.6;;;18.2;;
37365;SDS011;23239;51.504;7.456;2024-01-15T03:23:00;28.6;;;18.2;;
37365;SDS011;23239;51.504;7.456;2024-01-15T03:24:00;28.6;;;18.2;;
37365;SDS011;23239;51.504;7.456;2024-01-15T03:25:00;31.1;;;18.6;;
37365;SDS011;23239;51.504;7.456;2024-01-15T03:26:00;31.1;;;18.6;;
37365;SDS011;23239;51.504;7.456;2024-01-15T03:27:00;31.1;;;18.6;;
37365;SDS011;23239;51.504;7.456;2024-01-15T03:28:00;31.1;;;18.6;;
37365;SDS011;23239;51.504;7.456;2024-01-15T03:29:00;31.1;;;18.6;;
37365;SDS011;23239;51.504;7.456;2024-01-15T03:30:00;28.4;;;18.0;;
37365;SDS011;23239;51.504;7.456;2024-01-15T03:31:00;28.4;;;18.0;;
37365;SDS011;23239;51.504;7.456;2024-01-15T03:32:00;28.4;;;18.0;;
37365;SDS011;23239;51.504;7.456;2024-01-15T03:33:00;28.4;;;18.0;;
37365;SDS011;23239;51.504;7.456;2024-01-15T03:34:00;28.4;;;18.0;;
37365;SDS011;23239;51.504;7.456;2024-01-15T03:35:00;27.6;;;15.9;;
37365;SDS011;23239;51.504;7.456;2024-01-15T03:36:00;27.6;;;15.9;;
37365;SDS011;23239;51.504;7.456;2024-01-15T03:37:00;27.6;;;15.9;;
37365;SDS011;23239;51.504;7.456;2024-01-15T03:38:00;27.6;;;15.9;;
37365;SDS011;23239;51.504;7.456;2024-01-15T03:39:00;27.6;;;15.9;;
37365;SDS011;23239;51.504;7.456;2024-01-15T03:40:00;30.6;;;16.0;;
37365;SDS011;23239;51.504;7.456;2024-01-15T03:41:00;30.6;;;16.0;;
37365;SDS011;23239;51.504;7.456;2024-01-15T03:42:00;30.6;;;16.0;;
37365;SDS011;23239;51.504;7.456;2024-01-15T03:43:00;30.6;;;16.0;;
37365;SDS011;23239;51.504;7.456;2024-01-15T03:44:00;30.6;;;16.0;;
37365;SDS011;23239;51.504;7.456;2024-01-15T03:45:00;27.1;;;15.5;;
37365;SDS011;23239;51.504;7.456;2024-01-15T03:46:00;27.1;;;15.5;;
37365;SDS011;23239;51.504;7.456;2024-01-15T03:47:00;27.1;;;15.5;;
37365;SDS011;23239;51.504;7.456;2024-01-15T03:48:00;27.1;;;15.5;;
37365;SDS011;23239;51.504;7.456;2024-01-15T03:49:00;27.1;;;15.5;;
37365;SDS011;23239;51.504;7.456;2024-01-15T03:50:00;24.7;;;15.5;;
37365;SDS011;23239;51.504;7.456;2024-01-15T03:51:00;24.7;;;15.5;;
37365;SDS011;23239;51.504;7.456;2024-01-15T03:52:00;24.7;;;15.5;;
37365;SDS011;23239;51.504;7.456;2024-01-15T03:53:00;24.7;;;15.5;;
37365;SDS011;23239;51.504;7.456;2024-01-15T03:54:00;24.7;;;15.5;;
37365;SDS011;23239;51.504;7.456;2024-01-15T03:55:00;25.1;;;14.8;;
37365;SDS011;23239;51.504;7.456;2024-01-15T03:56:00;25.1;;;14.8;;
37365;SDS011;23239;51.504;7.456;2024-01-15T03:57:00;25.1;;;14.8;;
37365;SDS011;23239;51.504;7.456;2024-01-15T03:58:00;25.1;;;14.8;;
37365;SDS011;23239;51.504;7.456;2024-01-15T03:59:00;25.1;;;14.8;;
37365;SDS011;23239;51.504;7.456;2024-01-15T04:00:00;26.5;;;14.7;;
37365;SDS011;23239;51.504;7.456;2024-01-15T04:01:00;26.5;;;14.7;;
37365;SDS011;23239;51.504;7.456;2024-01-15T04:02:00;26.5;;;14.7;;
37365;SDS011;23239;51.504;7.456;2024-01-15T04:03:00;26.5;;;14.7;;
37365;SDS011;23239;51.504;7.456;2024-01-15T04:04:00;26.5;;;14.7;;
37365;SDS011;23239;51.504;7.456;2024-01-15T04:05:00;25.5;;;14.2;;
37365;SDS011;23239;51.504;7.456;2024-01-15T04:06:00;25.5;;;14.2;;
37365;SDS011;23239;51.504;7.456;2024-01-15T04:07:00;25.5;;;14.2;;
37365;SDS011;23239;51.504;7.456;2024-01-15T04:08:00;25.5;;;14.2;;
37365;SDS011;23239;51.504;7.456;2024-01-15T04:09:00;25.5;;;14.2;;
37365;SDS011;23239;51.504;7.456;2024-01-15T04:10:00;25.2;;;15.4;;
37365;SDS011;23239;51.504;7.456;2024-01-15T04:11:00;25.2;;;15.4;;
37365;SDS011;23239;51.504;7.456;2024-01-15T04:12:00;25.2;;;15.4;;
37365;SDS011;23239;51.504;7.456;2024-01-15T04:13:00;25.2;;;15.4;;
37365;SDS011;23239;51.504;7.456;2024-01-15T04:14:00;25.2;;;15.4;;
37365;SDS011;23239;51.504;7.456;2024-01-15T04:15:00;27.0;;;15.5;;
37365;SDS011;23239;51.504;7.456;2024-01-15T04:16:00;27.0;;;15.5;;
37365;SDS011;23239;51.504;7.456;2024-01-15T04:17:00;27.0;;;15.5;;
37365;SDS011;23239;51.504;7.456;2024-01-15T04:18:00;27.0;;;15.5;;
37365;SDS011;23239;51.504;7.456;2024-01-15T04:19:00;27.0;;;15.5;;
37365;SDS011;23239;51.504;7.456;2024-01-15T04:20:00;25.2;;;15.6;;
37365;SDS011;23239;51.504;7.456;2024-01-15T04:21:00;25.2;;;15.6;;
37365;SDS011;23239;51.504;7.456;2024-01-15T04:22:00;25.2;;;15.6;;
37365;SDS011;23239;51.504;7.456;2024-01-15T04:23:00;25.2;;;15.6;;
37365;SDS011;23239;51.504;7.456;2024-01-15T04:24:00;25.2;;;15.6;;
37365;SDS011;23239;51.504;7.456;2024-01-15T04:25:00;26.9;;;14.8;;
37365;SDS011;23239;51.504;7.456;2024-01-15T04:26:00;26.9;;;14.8;;
37365;SDS011;23239;51.504;7.456;2024-01-15T04:27:00;26.9;;;14.8;;
37365;SDS011;23239;51.504;7.456;2024-01-15T04:28:00;26.9;;;14.8;;
37365;SDS011;23239;51.504;7.456;2024-01-15T04:29:00;26.9;;;14.8;;
37365;SDS011;23239;51.504;7.456;2024-01-15T04:30:00;23.5;;;14.8;;
37365;SDS011;23239;51.504;7.456;2024-01-15T04:31:00;23.5;;;14.8;;
37365;SDS011;23239;51.504;7.456;2024-01-15T04:32:00;23.5;;;14.8;;
37365;SDS011;23239;51.504;7.456;2024-01-15T04:33:00;23.5;;;14.8;;
37365;SDS011;23239;51.504;7.456;2024-01-15T04:34:00;23.5;;;14.8;;
37365;SDS011;23239;51.504;7.456;2024-01-15T04:35:00;25.6;;;14.7;;
37365;SDS011;23239;51.504;7.456;2024-01-15T04:36:01;25.6;;;14.7;;
37365;SDS011;23239;51.504;7.456;2024-01-15T04:37:00;25.6;;;14.7;;
37365;SDS011;23239;51.504;7.456;2024-01-15T04:38:00;25.6;;;14.7;;
37365;SDS011;23239;51.504;7.456;2024-01-15T04:39:00;25.6;;;14.7;;
37365;SDS011;23239;51.504;7.456;2024-01-15T04:40:00;25.6;;;15.1;;
37365;SDS011;23239;51.504;7.456;2024-01-15T04:41:00;25.6;;;15.1;;
37365;SDS011;23239;51.504;7.456;2024-01-15T04:42:00;25.6;;;15.1;;
37365;SDS011;23239;51.504;7.456;2024-01-15T04:43:00;25.6;;;15.1;;
37365;SDS011;23239;51.504;7.456;2024-01-15T04:44:00;25.6;;;15.1;;
37365;SDS011;23239;51.504;7.456;2024-01-15T04:45:00;22.9;;;13.5;;
37365;SDS011;23239;51.504;7.456;2024-01-15T04:46:00;22.9;;;13.5;;
37365;SDS011;23239;51.504;7.456;2024-01-15T04:47:00;22.9;;;13.5;;
37365;SDS011;23239;51.504;7.456;2024-01-15T04:48:00;22.9;;;13.5;;
37365;SDS011;23239;51.504;7.456;2024-01-15T04:49:00;22.9;;;13.5;;
37365;SDS011;23239;51.504;7.456;2024-01-15T04:50:00;23.0;;;14.3;;
37365;SDS011;23239;51.504;7.456;2024-01-15T04:51:00;23.0;;;14.3;;
37365;SDS011;23239;51.504;7.456;2024-01-15T04:52:00;23.0;;;14.3;;
37365;SDS011;23239;51.504;7.456;2024-01-15T04:53:00;23.0;;;14.3;;
37365;SDS011;23239;51.504;7.456;2024-01-15T04:54:00;23.0;;;14.3;;
37365;SDS011;23239;51.504;7.456;2024-01-15T04:55:00;24.3;;;14.6;;
37365;SDS011;23239;51.504;7.456;2024-01-15T04:56:00;24.3;;;14.6;;
37365;SDS011;23239;51.504;7.456;2024-01-15T04:57:00;24.3;;;14.6;;
37365;SDS011;23239;51.504;7.456;2024-01-15T04:58:00;24.3;;;14.6;;
37365;SDS011;23239;51.504;7.456;2024-01-15T04:59:00;24.3;;;14.6;;
37365;SDS011;23239;51.504;7.456;2024-01-15T05:00:00;22.2;;;14.3;;
37365;SDS011;23239;51.504;7.456;2024-01-15T05:01:00;22.2;;;14.3;;
37365;SDS011;23239;51.504;7.456;2024-01-15T05:02:00;22.2;;;14.3;;
37365;SDS011;23239;51.504;7.456;2024-01-15T05:03:00;22.2;;;14.3;;
37365;SDS011;23239;51.504;7.456;2024-01-15T05:04:00;22.2;;;14.3;;
37365;SDS011;23239;51.504;7.456;2024-01-15T05:05:00;27.0;;;15.0;;
37365;SDS011;23239;51.504;7.456;2024-01-15T05:06:00;27.0;;;15.0;;
37365;SDS011;23239;51.504;7.456;2024-01-15T05:07:00;27.0;;;15.0;;
37365;SDS011;23239;51.504;7.456;2024-01-15T05:08:00;27.0;;;15.0;;
37365;SDS011;23239;51.504;7.456;2024-01-15T05:09:00;27.0;;;15.0;;
37365;SDS011;23239;51.504;7.456;2024-01-15T05:10:00;23.7;;;13.9;;
37365;SDS011;23239;51.504;7.456;2024-01-15T05:11:00;23.7;;;13.9;;
37365;SDS011;23239;51.504;7.456;2024-01-15T05:12:00;23.7;;;13.9;;
37365;SDS011;23239;51.504;7.456;2024-01-15T05:13:00;23.7;;;13.9;;
37365;SDS011;23239;51.504;7.456;2024-01-15T05:14:00;23.7;;;13.9;;
37365;SDS011;23239;51.504;7.456;2024-01-15T05:15:00;22.4;;;14.4;;
37365;SDS011;23239;51.504;7.456;2024-01-15T05:16:00;22.4;;;14.4;;
37365;SDS011;23239;51.504;7.456;2024-01-15T05:17:00;22.4;;;14.4;;
37365;SDS011;23239;51.504;7.456;2024-01-15T05:18:00;22.4;;;14.4;;
37365;SDS011;23239;51.504;7.456;2024-01-15T05:19:00;22.4;;;14.4;;
37365;SDS011;23239;51.504;7.456;2024-01-15T05:20:00;24.3;;;15.6;;
37365;SDS011;23239;51.504;7.456;2024-01-15T05:21:00;24.3;;;15.6;;
37365;SDS011;23239;51.504;7.456;2024-01-15T05:22:00;24.3;;;15.6;;
37365;SDS011;23239;51.504;7.456;2024-01-15T05:23:00;24.3;;;15.6;;
37365;SDS011;23239;51.504;7.456;2024-01-15T05:24:00;24.3;;;15.6;;
37365;SDS011;23239;51.504;7.456;2024-01-15T05:25:00;27.7;;;15.5;;
37365;SDS011;23239;51.504;7.456;2024-01-15T05:26:00;27.7;;;15.5;;
37365;SDS011;23239;51.504;7.456;2024-01-15T05:27:00;27.7;;;15.5;;
37365;SDS011;23239;51.504;7.456;2024-01-15T05:28:00;27.7;;;15.5;;
37365;SDS011;23239;51.504;7.456;2024-01-15T05:29:00;27.7;;;15.5;;
37365;SDS011;23239;51.504;7.456;2024-01-15T05:30:00;25.0;;;15.5;;
37365;SDS011;23239;51.504;7.456;2024-01-15T05:31:00;25.0;;;15.5;;
37365;SDS011;23239;51.504;7.456;2024-01-15T05:32:00;25.0;;;15.5;;
37365;SDS011;23239;51.504;7.456;2024-01-15T05:33:00;25.0;;;15.5;;
37365;SDS011;23239;51.504;7.456;2024-01-15T05:34:00;25.0;;;15.5;;
37365;SDS011;23239;51.504;7.456;2024-01-15T05:35:00;23.2;;;14.6;;
37365;SDS011;23239;51.504;7.456;2024-01-15T05:36:00;23.2;;;14.6;;
37365;SDS011;23239;51.504;7.456;2024-01-15T05:37:00;23.2;;;14.6;;
37365;SDS011;23239;51.504;7.456;2024-01-15T05:38:00;23.2;;;14.6;;
37365;SDS011;23239;51.504;7.456;2024-01-15T05:39:00;23.2;;;14.6;;
37365;SDS011;23239;51.504;7.456;2024-01-15T05:40:00;27.2;;;15.6;;
37365;SDS011;23239;51.504;7.456;2024-01-15T05:41:00;27.2;;;15.6;;
37365;SDS011;23239;51.504;7.456;2024-01-15T05:42:00;27.2;;;15.6;;
37365;SDS011;23239;51.504;7.456;2024-01-15T05:43:00;27.2;;;15.6;;
37365;SDS011;23239;51.504;7.456;2024-01-15T05:44:00;27.2;;;15.6;;
37365;SDS011;23239;51.504;7.456;2024-01-15T05:45:00;25.8;;;14.7;;
37365;SDS011;23239;51.504;7.456;2024-01-15T05:46:00;25.8;;;14.7;;
37365;SDS011;23239;51.504;7.456;2024-01-15T05:47:00;25.8;;;14.7;;
37365;SDS011;23239;51.504;7.456;2024-01-15T05:48:00;25.8;;;14.7;;
37365;SDS011;23239;51.504;7.456;2024-01-15T05:49:00;25.8;;;14.7;;
37365;SDS011;23239;51.504;7.456;2024-01-15T05:50:00;20.0;;;13.3;;
37365;SDS011;23239;51.504;7.456;2024-01-15T05:51:00;20.0;;;13.3;;
37365;SDS011;23239;51.504;7.456;2024-01-15T05:52:00;20.0;;;13.3;;
37365;SDS011;23239;51.504;7.456;2024-01-15T05:53:00;20.0;;;13.3;;
37365;SDS011;23239;51.504;7.456;2024-01-15T05:54:00;20.0;;;13.3;;
37365;SDS011;23239;51.504;7.456;2024-01-15T05:55:00;25.2;;;15.8;;
37365;SDS011;23239;51.504;7.456;2024-01-15T05:56:00;25.2;;;15.8;;
37365;SDS011;23239;51.504;7.456;2024-01-15T05:57:00;25.2;;;15.8;;
37365;SDS011;23239;51.504;7.456;2024-01-15T05:58:00;25.2;;;15.8;;
37365;SDS011;23239;51.504;7.456;2024-01-15T05:59:00;25.2;;;15.8;;
37365;SDS011;23239;51.504;7.456;2024-01-15T06:00:00;26.4;;;15.0;;
37365;SDS011;23239;51.504;7.456;2024-01-15T06:01:00;26.4;;;15.0;;